Time;durP1;ratioP1;P1;durP2;ratioP2;P2;SDS_P1;SDS_P2;PMS_P1;PMS_P2;Temp;Humidity;BMP_temperature;BMP_pressure;BME280_temperature;BME280_humidity;BME280_pressure;Samples;Min_cycle;Max_cycle;Signal;HPM_P1;HPM_P2
2021/01/22 00:01:31;;;;;;;39.53;24.40;;;;;;;-1.34;72.59;99155.61;1720441;82;21273;-43
2021/01/22 00:03:59;;;;;;;42.55;24.32;;;;;;;-1.36;72.51;99153.25;1741384;82;21206;-42
2021/01/22 00:06:28;;;;;;;39.73;25.23;;;;;;;-1.40;72.59;99158.07;1732245;82;22127;-43
2021/01/22 00:08:56;;;;;;;42.40;26.52;;;;;;;-1.42;72.58;99150.41;1730990;82;21167;-43
2021/01/22 00:11:24;;;;;;;39.98;26.37;;;;;;;-1.46;72.64;99153.38;1740937;82;21171;-42
2021/01/22 00:13:53;;;;;;;40.12;25.43;;;;;;;-1.50;72.85;99151.02;1722255;82;21163;-42
2021/01/22 00:16:21;;;;;;;42.60;26.15;;;;;;;-1.51;72.85;99152.12;1738215;82;21185;-42
2021/01/22 00:18:49;;;;;;;42.03;25.97;;;;;;;-1.56;72.88;99146.86;1709132;82;21275;-42
2021/01/22 00:21:17;;;;;;;43.95;26.68;;;;;;;-1.57;72.90;99149.27;1704880;82;21008;-42
2021/01/22 00:23:46;;;;;;;42.53;25.32;;;;;;;-1.59;72.94;99146.62;1704867;84;21151;-41
2021/01/22 00:26:14;;;;;;;40.75;25.97;;;;;;;-1.63;72.98;99141.09;1709294;82;21235;-43
2021/01/22 00:28:42;;;;;;;44.30;25.95;;;;;;;-1.64;73.09;99146.14;1709777;82;21175;-42
2021/01/22 00:31:11;;;;;;;43.38;26.48;;;;;;;-1.64;73.06;99139.50;1732678;82;21372;-42
2021/01/22 00:33:39;;;;;;;46.40;27.98;;;;;;;-1.64;73.15;99132.85;1712401;82;21139;-42
2021/01/22 00:36:07;;;;;;;43.42;25.35;;;;;;;-1.61;73.08;99133.63;1722414;82;21159;-41
2021/01/22 00:38:36;;;;;;;42.60;26.02;;;;;;;-1.59;72.95;99122.16;1705500;82;21215;-41
2021/01/22 00:41:04;;;;;;;39.63;24.50;;;;;;;-1.57;72.81;99117.36;1708087;82;21109;-42
2021/01/22 00:43:32;;;;;;;41.40;26.15;;;;;;;-1.51;72.70;99122.08;1705025;82;21617;-43
2021/01/22 00:46:00;;;;;;;41.60;25.88;;;;;;;-1.52;72.66;99110.66;1719047;82;21021;-42
2021/01/22 00:48:28;;;;;;;41.65;25.57;;;;;;;-1.53;72.67;99111.72;1728637;82;20978;-43
2021/01/22 00:50:57;;;;;;;48.15;28.35;;;;;;;-1.51;72.72;99109.58;1718442;82;21417;-44
2021/01/22 00:53:25;;;;;;;42.67;26.02;;;;;;;-1.53;72.77;99109.06;1705852;82;21613;-43
2021/01/22 00:55:54;;;;;;;42.23;26.60;;;;;;;-1.58;72.78;99098.50;1716276;82;21149;-42
2021/01/22 00:58:26;;;;;;;45.55;26.12;;;;;;;-1.57;72.79;99100.09;1700559;82;21194;-43
2021/01/22 01:00:56;;;;;;;45.58;27.02;;;;;;;-1.59;72.83;99101.43;1711832;82;21064;-43
2021/01/22 01:03:27;;;;;;;39.95;26.48;;;;;;;-1.64;73.08;99096.98;1705207;82;21151;-43
2021/01/22 01:05:55;;;;;;;43.23;26.97;;;;;;;-1.66;73.11;99087.72;1707665;82;21139;-42
2021/01/22 01:08:24;;;;;;;42.58;28.07;;;;;;;-1.64;73.06;99090.33;1724561;82;22151;-42
2021/01/22 01:11:00;;;;;;;46.20;27.15;;;;;;;-1.66;73.13;99078.42;1717834;82;21156;-42
2021/01/22 01:13:37;;;;;;;47.10;28.12;;;;;;;-1.62;73.13;99076.23;1702663;83;21155;-42
2021/01/22 01:16:13;;;;;;;47.38;28.07;;;;;;;-1.61;73.14;99074.37;1709823;82;21344;-42
2021/01/22 01:18:41;;;;;;;47.85;28.92;;;;;;;-1.61;73.07;99069.84;1716208;82;21146;-42
2021/01/22 01:21:11;;;;;;;41.88;26.75;;;;;;;-1.60;73.00;99063.45;1731521;82;21299;-42
2021/01/22 01:23:40;;;;;;;41.70;26.77;;;;;;;-1.61;72.94;99057.88;1718507;83;21146;-42
2021/01/22 01:26:08;;;;;;;44.77;27.35;;;;;;;-1.57;72.95;99104.07;1731412;82;21456;-42
2021/01/22 01:28:36;;;;;;;45.60;27.65;;;;;;;-1.62;72.90;99084.73;1719234;82;21062;-42
2021/01/22 01:31:05;;;;;;;46.05;28.60;;;;;;;-1.62;72.88;99078.09;1719653;82;21214;-42
2021/01/22 01:33:33;;;;;;;49.30;27.93;;;;;;;-1.63;73.02;99088.47;1719279;82;22120;-42
2021/01/22 01:36:02;;;;;;;42.38;26.75;;;;;;;-1.67;73.15;99084.27;1719900;82;21135;-42
2021/01/22 01:38:31;;;;;;;43.38;22.15;;;;;;;-1.76;73.31;99069.50;1719762;82;21198;-42
2021/01/22 01:40:59;;;;;;;46.92;28.25;;;;;;;-1.78;73.37;99069.52;1725966;82;21162;-42
2021/01/22 01:43:29;;;;;;;43.92;27.58;;;;;;;-1.80;73.34;99070.36;1748517;82;21170;-43
2021/01/22 01:45:57;;;;;;;43.42;27.65;;;;;;;-1.82;73.47;99061.34;1740145;82;21373;-44
2021/01/22 01:48:25;;;;;;;42.05;26.52;;;;;;;-1.77;73.46;99059.95;1739692;82;21130;-42
2021/01/22 01:50:54;;;;;;;43.08;26.68;;;;;;;-1.73;73.23;99062.81;1734159;82;21190;-41
2021/01/22 01:53:24;;;;;;;45.67;28.52;;;;;;;-1.74;73.18;99057.24;1748201;82;21154;-42
2021/01/22 01:55:52;;;;;;;44.65;27.27;;;;;;;-1.82;73.40;99053.37;1747391;82;21648;-42
2021/01/22 01:58:21;;;;;;;47.05;28.05;;;;;;;-1.86;73.42;99052.36;1747814;82;21363;-42
2021/01/22 02:00:49;;;;;;;45.45;28.57;;;;;;;-1.89;73.61;99045.51;1743381;82;21477;-42
2021/01/22 02:03:17;;;;;;;47.20;29.07;;;;;;;-1.90;73.62;99047.91;1696726;82;21162;-42
2021/01/22 02:05:47;;;;;;;47.00;30.00;;;;;;;-1.94;73.83;99044.24;1729750;82;21063;-42
2021/01/22 02:08:15;;;;;;;;;;;;;;;-1.93;73.71;99039.16;1750937;82;21173;-42
2021/01/22 02:10:44;;;;;;;45.95;27.90;;;;;;;-1.90;73.73;99046.05;1747383;82;22135;-42
2021/01/22 02:13:12;;;;;;;47.60;29.57;;;;;;;-1.97;73.97;99040.81;1743847;82;21174;-43
2021/01/22 02:15:41;;;;;;;48.25;30.88;;;;;;;-1.94;73.96;99031.75;1745351;82;21598;-43
2021/01/22 02:18:09;;;;;;;51.75;30.00;;;;;;;-1.95;73.99;99022.73;1743639;82;21167;-43
2021/01/22 02:21:10;;;;;;;52.20;29.92;;;;;;;-1.94;74.23;99021.12;1724913;82;21601;-43
2021/01/22 02:23:42;;;;;;;36.28;22.50;;;;;;;-1.91;74.28;99018.42;1736486;82;21368;-42
2021/01/22 02:26:34;;;;;;;48.42;27.93;;;;;;;-1.89;74.54;99019.70;1695126;83;21206;-42
2021/01/22 02:29:05;;;;;;;47.03;28.75;;;;;;;-1.87;74.71;99026.07;1730571;82;21162;-42
2021/01/22 02:31:40;;;;;;;50.08;29.45;;;;;;;-1.86;74.97;99028.45;1741259;82;21127;-42
2021/01/22 02:34:09;;;;;;;47.30;28.50;;;;;;;-1.87;75.62;99021.55;1738743;82;21147;-42
2021/01/22 02:36:41;;;;;;;53.33;31.12;;;;;;;-1.87;75.63;99026.07;1741637;82;21378;-42
2021/01/22 02:39:10;;;;;;;51.37;29.75;;;;;;;-1.85;75.75;99019.95;1737952;82;21183;-41
2021/01/22 02:41:40;;;;;;;50.23;29.48;;;;;;;-1.83;75.78;99016.45;1740384;82;21119;-42
2021/01/22 02:44:09;;;;;;;48.05;29.87;;;;;;;-1.78;76.11;99013.72;1728044;82;21148;-42
2021/01/22 02:46:37;;;;;;;51.95;30.30;;;;;;;-1.74;75.99;99006.75;1734792;82;21135;-42
2021/01/22 02:49:06;;;;;;;50.55;29.98;;;;;;;-1.76;76.14;99004.94;1742872;82;22161;-42
2021/01/22 02:51:35;;;;;;;52.95;30.70;;;;;;;-1.73;76.19;99008.88;1730823;82;21178;-42
2021/01/22 02:54:03;;;;;;;49.13;30.88;;;;;;;-1.72;76.32;99014.45;1734999;82;21174;-42
2021/01/22 02:56:40;;;;;;;55.03;32.25;;;;;;;-1.70;76.37;99019.74;1743505;82;21139;-42
2021/01/22 02:59:42;;;;;;;50.35;30.43;;;;;;;-1.71;76.56;99013.38;1747220;82;21162;-43
2021/01/22 03:02:51;;;;;;;49.33;29.12;;;;;;;-1.65;76.54;99005.05;1744167;82;21395;-43
2021/01/22 03:05:24;;;;;;;50.30;30.70;;;;;;;-1.58;76.47;99009.45;1734281;82;21238;-43
2021/01/22 03:07:58;;;;;;;49.95;30.20;;;;;;;-1.60;76.77;99007.64;1748189;82;21146;-43
2021/01/22 03:10:26;;;;;;;49.73;28.73;;;;;;;-1.59;76.82;99006.54;1727632;82;21055;-43
2021/01/22 03:12:57;;;;;;;50.93;30.60;;;;;;;-1.51;76.68;99008.56;1718681;82;21230;-42
2021/01/22 03:15:25;;;;;;;53.23;31.12;;;;;;;-1.47;76.85;99016.75;1723942;82;21379;-41
2021/01/22 03:18:16;;;;;;;52.93;31.27;;;;;;;-1.48;76.98;99019.94;1738730;82;21219;-42
2021/01/22 03:20:47;;;;;;;52.15;30.30;;;;;;;-1.47;77.09;99022.86;1720544;82;21048;-42
2021/01/22 03:23:17;;;;;;;50.80;30.32;;;;;;;-1.42;77.02;99018.00;1748196;82;21203;-44
2021/01/22 03:25:45;;;;;;;51.50;31.37;;;;;;;-1.41;77.04;99020.38;1726148;82;21187;-42
2021/01/22 03:28:15;;;;;;;50.38;29.10;;;;;;;-1.32;76.97;99016.52;1737649;82;21392;-42
2021/01/22 03:30:43;;;;;;;49.45;31.00;;;;;;;-1.24;76.85;99023.04;1746570;82;21146;-42
2021/01/22 03:33:12;;;;;;;50.90;30.92;;;;;;;-1.22;76.86;99022.22;1738179;82;21190;-42
2021/01/22 03:35:41;;;;;;;51.50;31.55;;;;;;;-1.18;76.74;99008.05;1724937;82;21067;-42
2021/01/22 03:38:09;;;;;;;49.48;29.40;;;;;;;-1.20;76.87;99010.73;1742638;82;21106;-42
2021/01/22 03:40:39;;;;;;;49.53;29.23;;;;;;;-1.14;76.79;99014.90;1740546;82;23467;-43
2021/01/22 03:43:07;;;;;;;49.83;30.32;;;;;;;-1.09;76.70;99013.48;1724584;82;20996;-42
2021/01/22 03:45:36;;;;;;;51.28;30.62;;;;;;;-1.12;76.90;99008.77;1723330;82;21047;-43
2021/01/22 03:48:06;;;;;;;53.48;31.85;;;;;;;-1.07;76.79;99007.35;1732449;82;21194;-42
2021/01/22 03:50:34;;;;;;;50.52;31.33;;;;;;;-1.01;76.69;99004.30;1719589;82;21166;-43
2021/01/22 03:53:03;;;;;;;48.35;29.57;;;;;;;-1.02;76.78;99000.61;1718488;82;21959;-42
2021/01/22 03:55:31;;;;;;;50.78;30.62;;;;;;;-1.01;76.82;99005.63;1718298;83;21182;-41
2021/01/22 03:57:59;;;;;;;51.68;31.20;;;;;;;-1.03;76.83;98999.83;1718933;82;21106;-43
2021/01/22 04:00:30;;;;;;;56.35;32.35;;;;;;;-0.98;76.82;99001.61;1718388;83;21585;-42
2021/01/22 04:02:58;;;;;;;45.98;24.85;;;;;;;-0.93;76.78;99006.84;1719001;82;21870;-42
2021/01/22 04:05:26;;;;;;;50.52;30.62;;;;;;;-0.88;76.70;98994.78;1718611;82;22354;-42
2021/01/22 04:07:55;;;;;;;49.08;29.98;;;;;;;-0.82;76.58;98990.92;1728342;82;21083;-42
2021/01/22 04:10:23;;;;;;;52.62;31.52;;;;;;;-0.77;76.51;98998.02;1722968;82;22204;-42
2021/01/22 04:12:51;;;;;;;50.80;30.37;;;;;;;-0.74;76.35;98996.92;1718471;82;21174;-43
2021/01/22 04:15:20;;;;;;;51.77;30.65;;;;;;;-0.71;76.33;99000.31;1745127;82;21126;-42
2021/01/22 04:17:48;;;;;;;48.42;30.90;;;;;;;-0.66;76.23;98990.91;1739644;82;21201;-42
2021/01/22 04:20:21;;;;;;;50.25;29.75;;;;;;;-0.64;76.20;98988.75;1740839;81;21174;-42
2021/01/22 04:22:47;;;;;;;;;;;;;;;-0.58;76.09;98992.88;1729940;82;21201;-43
2021/01/22 04:25:15;;;;;;;46.40;29.98;;;;;;;-0.55;75.98;98988.31;1741944;82;20279;-42
2021/01/22 04:27:43;;;;;;;48.25;28.67;;;;;;;-0.65;76.19;98996.48;1745449;82;21170;-42
2021/01/22 04:30:13;;;;;;;51.30;30.52;;;;;;;-0.67;76.36;99001.30;1746401;82;21272;-42
2021/01/22 04:32:41;;;;;;;33.75;21.85;;;;;;;-0.63;76.26;99001.52;1742313;82;21660;-42
2021/01/22 04:35:15;;;;;;;52.25;31.05;;;;;;;-0.64;76.32;99004.72;1728721;82;21146;-43
2021/01/22 04:37:43;;;;;;;51.28;30.80;;;;;;;-0.63;76.37;98998.86;1718277;83;21230;-42
2021/01/22 04:40:13;;;;;;;56.02;31.42;;;;;;;-0.63;76.43;98996.96;1723606;82;21146;-42
2021/01/22 04:42:42;;;;;;;52.50;31.33;;;;;;;-0.60;76.37;98996.39;1731403;82;21221;-42
2021/01/22 04:45:12;;;;;;;50.63;30.85;;;;;;;-0.58;76.38;98994.20;1727254;82;21139;-42
2021/01/22 04:47:41;;;;;;;53.25;31.95;;;;;;;-0.54;76.25;98984.56;1720364;82;21170;-42
2021/01/22 04:50:11;;;;;;;50.33;30.35;;;;;;;-0.50;76.18;98990.88;1748265;82;21616;-42
2021/01/22 04:52:40;;;;;;;48.30;29.82;;;;;;;-0.48;76.07;98988.69;1744829;82;21138;-43
2021/01/22 04:55:13;;;;;;;53.58;31.25;;;;;;;-0.46;76.00;98987.07;1745692;82;21207;-42
2021/01/22 04:57:47;;;;;;;46.68;29.05;;;;;;;-0.47;75.98;98986.28;1727341;82;21166;-42
2021/01/22 05:00:17;;;;;;;47.48;29.12;;;;;;;-0.47;75.96;98979.63;1718970;82;21079;-42
2021/01/22 05:02:45;;;;;;;44.73;29.67;;;;;;;-0.46;75.96;98987.87;1718959;82;21166;-43
2021/01/22 05:05:13;;;;;;;45.25;29.35;;;;;;;-0.43;75.85;98987.80;1725436;82;21745;-43
2021/01/22 05:07:42;;;;;;;46.50;29.12;;;;;;;-0.44;75.84;98995.00;1748198;82;21362;-42
2021/01/22 05:10:11;;;;;;;49.77;29.77;;;;;;;-0.40;75.76;98993.09;1748200;82;21123;-42
2021/01/22 05:12:40;;;;;;;48.60;30.17;;;;;;;-0.40;75.79;98993.89;1747587;82;21051;-42
2021/01/22 05:15:26;;;;;;;37.65;22.07;;;;;;;-0.37;75.75;98995.95;1726725;82;22274;-42
2021/01/22 05:18:02;;;;;;;51.98;30.25;;;;;;;-0.35;75.69;98999.66;1722706;82;21214;-42
2021/01/22 05:20:35;;;;;;;45.90;28.23;;;;;;;-0.36;75.69;98996.20;1708798;83;21593;-42
2021/01/22 05:23:08;;;;;;;48.87;29.65;;;;;;;-0.38;75.81;99001.56;1704198;84;21198;-42
2021/01/22 05:26:02;;;;;;;50.95;32.00;;;;;;;-0.42;75.65;99002.70;1704473;84;21127;-43
2021/01/22 05:28:36;;;;;;;46.08;28.75;;;;;;;-0.42;75.71;99020.01;1704266;84;21183;-44
2021/01/22 05:31:11;;;;;;;46.90;29.37;;;;;;;-0.48;75.76;99021.97;1716844;82;21619;-42
2021/01/22 05:33:58;;;;;;;50.95;30.35;;;;;;;-0.50;75.84;99019.38;1705347;82;21374;-43
2021/01/22 05:36:29;;;;;;;49.63;30.30;;;;;;;-0.50;75.83;99022.83;1704415;84;21150;-42
2021/01/22 05:39:01;;;;;;;49.95;30.45;;;;;;;-0.53;75.79;99004.77;1704981;84;21646;-42
2021/01/22 05:41:29;;;;;;;48.92;29.92;;;;;;;-0.37;75.63;99008.47;1705016;83;22170;-42
2021/01/22 05:43:58;;;;;;;50.08;30.75;;;;;;;-0.33;75.38;99014.78;1684955;84;21123;-42
2021/01/22 05:46:29;;;;;;;49.42;30.65;;;;;;;-0.33;75.24;99005.45;1705096;82;21398;-43
2021/01/22 05:49:14;;;;;;;48.63;31.12;;;;;;;-0.38;75.19;99010.87;1704930;84;21192;-43
2021/01/22 05:51:44;;;;;;;50.48;30.70;;;;;;;-0.42;75.35;99007.23;1706906;82;21179;-42
2021/01/22 05:54:34;;;;;;;53.92;32.55;;;;;;;-0.42;75.26;99002.70;1704918;84;22208;-41
2021/01/22 05:57:04;;;;;;;45.73;29.07;;;;;;;-0.46;75.37;98999.84;1704782;84;21175;-42
2021/01/22 05:59:33;;;;;;;52.00;30.97;;;;;;;-0.46;75.36;99002.52;1705098;84;21904;-42
2021/01/22 06:02:23;;;;;;;47.50;28.02;;;;;;;-0.47;75.48;99002.26;1704980;82;21206;-41
2021/01/22 06:05:16;;;;;;;45.73;28.40;;;;;;;-0.48;75.42;98996.68;1707610;82;21162;-43
2021/01/22 06:07:45;;;;;;;49.88;30.35;;;;;;;-0.46;75.42;98996.39;1714778;82;21170;-42
2021/01/22 06:10:17;;;;;;;47.98;30.40;;;;;;;-0.43;75.33;98993.13;1704932;84;21166;-42
2021/01/22 06:12:53;;;;;;;48.73;29.80;;;;;;;-0.39;75.23;98997.34;1704968;84;21570;-42
2021/01/22 06:15:23;;;;;;;50.03;30.25;;;;;;;-0.34;75.20;98985.26;1704903;84;21606;-42
2021/01/22 06:17:53;;;;;;;52.85;32.75;;;;;;;-0.36;75.13;98991.41;1704611;82;21191;-43
2021/01/22 06:20:23;;;;;;;49.25;29.65;;;;;;;-0.42;75.27;98989.39;1694614;82;21179;-41
2021/01/22 06:23:13;;;;;;;37.93;24.67;;;;;;;-0.40;75.48;99001.08;1703241;82;21203;-41
2021/01/22 06:25:44;;;;;;;50.92;31.25;;;;;;;-0.42;75.61;98999.25;1734243;82;21208;-43
2021/01/22 06:28:12;;;;;;;47.23;29.87;;;;;;;-0.40;75.69;98999.75;1734223;82;21155;-43
2021/01/22 06:30:41;;;;;;;47.70;29.05;;;;;;;-0.42;75.86;98978.73;1734299;82;21163;-43
2021/01/22 06:33:09;;;;;;;50.28;29.87;;;;;;;-0.35;75.78;98994.33;1713177;82;21191;-42
2021/01/22 06:35:38;;;;;;;47.95;29.40;;;;;;;-0.33;75.91;98973.50;1704920;83;21144;-42
2021/01/22 06:38:07;;;;;;;47.03;30.57;;;;;;;-0.33;75.82;98966.84;1702378;84;21253;-42
2021/01/22 06:40:35;;;;;;;45.98;28.87;;;;;;;-0.22;75.78;98979.66;1701091;84;21136;-42
2021/01/22 06:43:07;;;;;;;44.50;28.77;;;;;;;-0.15;75.72;98985.94;1705088;83;21076;-42
2021/01/22 06:45:35;;;;;;;48.78;30.17;;;;;;;-0.14;75.72;98980.28;1685229;84;21183;-43
2021/01/22 06:48:07;;;;;;;49.03;30.77;;;;;;;-0.08;75.47;98981.77;1705051;82;21131;-43
2021/01/22 06:50:37;;;;;;;51.33;31.50;;;;;;;-0.02;75.43;98994.45;1709799;82;21362;-42
2021/01/22 06:53:15;;;;;;;46.60;29.77;;;;;;;-0.02;75.41;98977.13;1704921;84;21147;-44
2021/01/22 06:56:03;;;;;;;49.10;29.95;;;;;;;0.00;75.47;98986.95;1710477;82;21195;-43
2021/01/22 06:58:32;;;;;;;50.38;30.68;;;;;;;0.06;75.49;98985.73;1719360;82;21486;-42
2021/01/22 07:01:04;;;;;;;47.27;30.90;;;;;;;0.16;75.42;98992.19;1708823;82;21151;-41
2021/01/22 07:03:43;;;;;;;47.15;30.20;;;;;;;0.28;75.21;98982.34;1704936;82;21378;-42
2021/01/22 07:06:39;;;;;;;49.05;30.60;;;;;;;0.34;75.12;98985.91;1728321;82;21163;-42
2021/01/22 07:09:06;;;;;;;50.50;31.85;;;;;;;0.40;75.01;98978.05;1719809;82;21166;-42
2021/01/22 07:11:55;;;;;;;50.67;30.72;;;;;;;0.43;74.80;98984.12;1685506;84;21068;-42
2021/01/22 07:14:47;;;;;;;45.95;29.48;;;;;;;0.49;74.71;98988.77;1705015;84;21636;-41
2021/01/22 07:17:21;;;;;;;44.33;29.00;;;;;;;0.55;74.70;98984.91;1704892;82;22129;-42
2021/01/22 07:20:02;;;;;;;46.90;31.02;;;;;;;0.70;74.26;98985.88;1706818;83;21609;-42
2021/01/22 07:22:32;;;;;;;48.38;32.17;;;;;;;0.73;74.22;98980.47;1718451;83;21167;-42
2021/01/22 07:25:04;;;;;;;48.92;30.90;;;;;;;0.73;74.44;98969.80;1718604;82;21194;-42
2021/01/22 07:27:44;;;;;;;47.05;29.72;;;;;;;0.82;74.43;98981.34;1718521;82;21175;-42
2021/01/22 07:30:16;;;;;;;44.65;29.20;;;;;;;0.92;73.94;98979.73;1718312;83;21425;-42
2021/01/22 07:32:48;;;;;;;49.10;30.88;;;;;;;0.99;73.89;98979.31;1734204;82;21182;-42
2021/01/22 07:35:24;;;;;;;47.25;29.67;;;;;;;0.99;73.68;98969.42;1724788;82;21648;-43
2021/01/22 07:37:54;;;;;;;44.42;29.85;;;;;;;0.95;73.61;98973.80;1748061;82;21222;-42
2021/01/22 07:40:22;;;;;;;43.13;29.50;;;;;;;0.95;73.77;98977.81;1739541;82;21170;-43
2021/01/22 07:42:50;;;;;;;45.08;30.60;;;;;;;1.06;73.45;98977.01;1718530;83;22155;-42
2021/01/22 07:45:19;;;;;;;49.38;31.52;;;;;;;1.07;73.46;98993.24;1718158;83;20992;-42
2021/01/22 07:47:48;;;;;;;47.38;30.65;;;;;;;1.02;73.40;98987.48;1736012;82;21748;-42
2021/01/22 07:50:22;;;;;;;48.48;30.97;;;;;;;0.96;73.46;98970.05;1745796;82;21163;-44
2021/01/22 07:52:51;;;;;;;39.98;26.37;;;;;;;0.88;73.75;98983.56;1747889;82;21162;-43
2021/01/22 07:55:21;;;;;;;47.58;30.77;;;;;;;0.86;73.94;98979.64;1748113;82;21376;-42
2021/01/22 07:58:06;;;;;;;49.80;31.97;;;;;;;0.84;74.11;98979.14;1748176;82;21570;-42
2021/01/22 08:00:40;;;;;;;45.73;29.67;;;;;;;0.84;74.08;98981.81;1748157;82;21178;-42
2021/01/22 08:03:09;;;;;;;41.73;27.77;;;;;;;0.89;74.16;98979.02;1727115;82;21534;-43
2021/01/22 08:05:38;;;;;;;43.60;27.90;;;;;;;0.97;74.13;98974.27;1730381;82;21166;-43
2021/01/22 08:08:20;;;;;;;48.77;30.93;;;;;;;1.05;74.05;98991.44;1748473;82;22074;-42
2021/01/22 08:10:48;;;;;;;48.68;30.65;;;;;;;1.07;74.12;98981.23;1748157;82;21039;-42
2021/01/22 08:13:17;;;;;;;44.30;29.18;;;;;;;1.14;73.98;98984.27;1746841;82;20987;-43
2021/01/22 08:15:45;;;;;;;43.35;28.67;;;;;;;1.18;73.90;98974.55;1745665;82;21079;-42
2021/01/22 08:18:15;;;;;;;44.15;29.72;;;;;;;1.23;73.69;98969.86;1741456;82;21799;-41
2021/01/22 08:20:50;;;;;;;45.10;28.75;;;;;;;1.30;73.51;98978.23;1743041;81;21455;-42
2021/01/22 08:23:22;;;;;;;43.38;29.45;;;;;;;1.37;73.22;98976.98;1734167;82;21159;-43
2021/01/22 08:25:59;;;;;;;44.67;29.87;;;;;;;1.37;73.39;98975.10;1734118;82;21336;-42
2021/01/22 08:28:31;;;;;;;33.83;22.58;;;;;;;1.40;73.35;98976.39;1734348;82;21044;-41
2021/01/22 08:31:00;;;;;;;43.20;28.80;;;;;;;1.43;73.37;98973.88;1711686;82;21223;-42
2021/01/22 08:35:53;;;;;;;42.78;28.15;;;;;;;1.58;73.21;98972.13;1822676;78;22534;-41
2021/01/22 08:38:23;;;;;;;43.20;28.07;;;;;;;1.54;73.14;98973.06;1815789;79;21031;-41
2021/01/22 08:40:51;;;;;;;41.20;26.30;;;;;;;1.61;72.90;98968.04;1800373;79;21379;-41
2021/01/22 08:43:19;;;;;;;43.08;28.12;;;;;;;1.64;72.96;98972.78;1783705;80;21848;-41
2021/01/22 08:48:48;;;;;;;44.65;30.15;;;;;;;1.73;73.02;98970.92;1875912;76;22648;-42
2021/01/22 08:51:30;;;;;;;42.83;28.77;;;;;;;1.73;72.86;98970.38;1842344;77;21043;-41
2021/01/22 08:53:58;;;;;;;43.65;29.87;;;;;;;1.82;72.58;98969.05;1818852;78;23669;-41
2021/01/22 08:56:26;;;;;;;46.05;29.77;;;;;;;1.86;72.67;98965.20;1818896;78;21047;-41
2021/01/22 08:59:10;;;;;;;46.00;30.32;;;;;;;1.92;72.77;98964.75;1818917;78;21075;-42
2021/01/22 09:01:58;;;;;;;46.02;28.77;;;;;;;1.95;72.45;98964.12;1819600;77;20991;-40
2021/01/22 09:04:34;;;;;;;42.98;28.20;;;;;;;1.95;72.36;98957.44;1813907;79;21269;-41
2021/01/22 09:07:17;;;;;;;38.48;26.37;;;;;;;2.06;72.19;98956.05;1813762;79;21195;-41
2021/01/22 09:09:49;;;;;;;44.25;28.70;;;;;;;2.18;71.99;98949.52;1813930;79;21868;-42
2021/01/22 09:12:31;;;;;;;42.43;28.77;;;;;;;2.25;71.79;98942.91;1825523;78;21015;-42
2021/01/22 09:15:10;;;;;;;42.27;30.17;;;;;;;2.28;71.52;98953.77;1841104;77;21145;-41
2021/01/22 09:17:44;;;;;;;45.03;29.90;;;;;;;2.28;71.29;98944.41;1836765;77;21446;-41
2021/01/22 09:20:25;;;;;;;48.45;31.90;;;;;;;2.29;71.51;98944.64;1821472;77;21358;-42
2021/01/22 09:23:04;;;;;;;;;;;;;;;2.35;71.28;98939.93;1828358;78;21593;-43
2021/01/22 09:25:32;;;;;;;41.95;28.42;;;;;;;2.36;71.31;98940.17;1833207;77;20257;-42
2021/01/22 09:28:01;;;;;;;36.53;26.95;;;;;;;2.39;71.22;98942.20;1859164;77;21133;-42
2021/01/22 09:30:29;;;;;;;43.95;28.90;;;;;;;2.52;71.08;98937.23;1859347;77;21137;-42
2021/01/22 09:32:59;;;;;;;41.20;29.95;;;;;;;2.61;71.00;98945.48;1856848;77;21321;-42
2021/01/22 09:35:29;;;;;;;42.67;28.67;;;;;;;2.70;70.62;98937.47;1838185;77;21155;-42
2021/01/22 09:37:58;;;;;;;40.00;28.20;;;;;;;2.79;70.42;98934.77;1839795;78;21012;-43
2021/01/22 09:40:26;;;;;;;41.80;28.50;;;;;;;2.91;69.84;98930.87;1846773;77;21882;-42
2021/01/22 09:42:55;;;;;;;43.68;29.42;;;;;;;3.03;69.68;98926.98;1859270;77;21165;-42
2021/01/22 09:45:24;;;;;;;40.67;27.98;;;;;;;3.18;69.71;98916.30;1859360;77;21090;-43
2021/01/22 09:47:56;;;;;;;37.70;26.75;;;;;;;3.40;68.51;98924.87;1837471;77;21152;-43
2021/01/22 09:50:24;;;;;;;41.08;28.10;;;;;;;3.54;67.44;98919.28;1825649;78;21605;-42
2021/01/22 09:52:52;;;;;;;37.73;27.87;;;;;;;3.62;67.46;98915.78;1825465;78;21176;-42
2021/01/22 09:55:21;;;;;;;40.85;28.73;;;;;;;3.69;67.09;98913.36;1846789;77;21152;-43
2021/01/22 09:57:51;;;;;;;37.50;26.10;;;;;;;3.76;66.93;98913.65;1859298;77;21090;-43
2021/01/22 10:00:21;;;;;;;38.35;26.97;;;;;;;3.83;66.41;98914.45;1858564;77;21142;-43
2021/01/22 10:02:50;;;;;;;41.85;28.27;;;;;;;3.85;66.19;98910.36;1839636;77;21009;-42
2021/01/22 10:05:18;;;;;;;36.63;26.73;;;;;;;3.88;65.97;98900.86;1824915;78;21010;-43
2021/01/22 10:07:46;;;;;;;39.83;26.27;;;;;;;3.88;66.13;98902.20;1824920;78;21136;-43
2021/01/22 10:10:15;;;;;;;38.15;27.48;;;;;;;3.89;65.72;98899.20;1824962;78;21363;-42
2021/01/22 10:12:43;;;;;;;38.08;26.27;;;;;;;3.89;65.70;98891.16;1825032;77;21148;-42
2021/01/22 10:15:13;;;;;;;37.80;26.80;;;;;;;3.96;65.72;98891.98;1837569;77;21153;-42
2021/01/22 10:17:43;;;;;;;;;;;;;;;4.09;65.35;98890.94;1859937;77;21154;-42
2021/01/22 10:20:14;;;;;;;43.23;27.27;;;;;;;4.15;64.97;98882.92;1856248;77;20265;-42
2021/01/22 10:22:43;;;;;;;35.10;25.32;;;;;;;4.12;65.14;98880.09;1856227;77;22588;-43
2021/01/22 10:25:13;;;;;;;34.73;24.80;;;;;;;4.32;64.92;98881.98;1856053;77;21170;-42
2021/01/22 10:27:44;;;;;;;36.85;26.27;;;;;;;4.54;64.09;98882.97;1853192;77;21456;-44
2021/01/22 10:30:16;;;;;;;37.35;25.62;;;;;;;4.75;63.42;98881.55;1817289;77;21031;-42
2021/01/22 10:32:44;;;;;;;36.33;25.12;;;;;;;5.02;63.25;98870.77;1819826;77;21094;-43
2021/01/22 10:35:14;;;;;;;38.35;25.85;;;;;;;5.36;62.86;98871.67;1830916;77;21188;-42
2021/01/22 10:37:44;;;;;;;35.60;24.20;;;;;;;6.04;60.45;98866.44;1858601;77;21157;-42
2021/01/22 10:40:15;;;;;;;35.67;24.90;;;;;;;6.04;60.45;98866.44;1859444;77;20971;-43
2021/01/22 10:42:45;;;;;;;34.18;24.20;;;;;;;6.27;59.11;98858.62;1858518;77;21126;-43
2021/01/22 10:45:15;;;;;;;33.98;24.35;;;;;;;6.46;58.62;98857.41;1824939;78;21173;-43
2021/01/22 10:47:43;;;;;;;35.55;26.12;;;;;;;6.55;58.16;98849.95;1825950;77;22108;-42
2021/01/22 10:50:13;;;;;;;26.77;19.50;;;;;;;6.64;57.27;98853.27;1850901;77;21455;-43
2021/01/22 10:52:43;;;;;;;35.65;25.45;;;;;;;6.71;56.32;98853.47;1858645;77;21074;-43
2021/01/22 10:55:14;;;;;;;32.33;23.40;;;;;;;6.71;56.61;98851.34;1858506;77;21027;-44
2021/01/22 10:57:42;;;;;;;34.78;25.02;;;;;;;6.75;56.72;98840.08;1849460;77;22104;-43
2021/01/22 11:00:12;;;;;;;32.00;23.30;;;;;;;6.90;56.63;98842.01;1824878;78;21443;-42
2021/01/22 11:02:40;;;;;;;30.02;22.22;;;;;;;6.95;55.73;98835.80;1842464;77;21153;-43
2021/01/22 11:05:11;;;;;;;31.27;22.85;;;;;;;6.93;56.09;98831.88;1853239;77;21011;-43
2021/01/22 11:07:39;;;;;;;32.20;24.43;;;;;;;6.99;56.28;98825.09;1855426;77;21043;-43
2021/01/22 11:10:09;;;;;;;31.42;23.18;;;;;;;7.15;55.54;98831.27;1844776;77;21091;-43
2021/01/22 11:12:37;;;;;;;33.10;24.20;;;;;;;7.24;55.35;98829.17;1845120;77;22193;-42
2021/01/22 11:15:10;;;;;;;32.83;25.12;;;;;;;7.39;54.93;98823.55;1844796;77;21158;-43
2021/01/22 11:17:39;;;;;;;30.77;22.65;;;;;;;7.51;54.17;98818.58;1851501;77;21126;-43
2021/01/22 11:20:09;;;;;;;34.43;24.00;;;;;;;7.51;54.57;98806.45;1855093;77;21658;-43
2021/01/22 11:22:38;;;;;;;30.82;22.62;;;;;;;7.51;54.40;98807.80;1858072;77;21138;-43
2021/01/22 11:25:08;;;;;;;31.75;22.37;;;;;;;7.43;54.18;98804.17;1858484;77;21192;-43
2021/01/22 11:27:36;;;;;;;28.55;22.30;;;;;;;7.22;54.59;98807.16;1858551;77;21031;-43
2021/01/22 11:30:08;;;;;;;31.30;23.40;;;;;;;6.94;55.18;98802.45;1858718;77;21010;-43
2021/01/22 11:32:36;;;;;;;;;;;;;;;6.73;55.88;98800.60;1841622;77;21158;-42
2021/01/22 11:35:09;;;;;;;30.57;22.80;;;;;;;6.58;56.37;98806.75;1828918;77;20285;-44
2021/01/22 11:37:41;;;;;;;29.00;21.97;;;;;;;6.41;56.95;98800.55;1842800;77;21355;-42
2021/01/22 11:40:13;;;;;;;32.85;24.05;;;;;;;6.41;57.07;98802.46;1834773;77;21560;-43
2021/01/22 11:42:43;;;;;;;32.03;23.10;;;;;;;6.36;57.29;98799.46;1858660;77;21173;-43
2021/01/22 11:45:13;;;;;;;34.43;24.27;;;;;;;6.29;57.53;98797.94;1858678;77;21568;-43
2021/01/22 11:47:41;;;;;;;31.53;23.80;;;;;;;6.22;57.62;98798.30;1857199;77;21166;-44